createdAt,value
2023-01-11T00:00:35.281Z,7.75
2023-01-11T00:03:04.667Z,6.90
2023-01-11T00:05:32.346Z,9.50
2023-01-11T00:08:00.176Z,8.57
2023-01-11T00:10:29.376Z,6.05
2023-01-11T00:12:56.915Z,5.97
2023-01-11T00:15:24.457Z,6.60
2023-01-11T00:17:52.359Z,6.72
2023-01-11T00:20:19.859Z,7.90
2023-01-11T00:22:47.427Z,7.37
2023-01-11T00:25:15.213Z,6.03
2023-01-11T00:27:42.691Z,7.00
2023-01-11T00:30:10.911Z,6.80
2023-01-11T00:32:38.763Z,6.23
2023-01-11T00:35:06.803Z,6.00
2023-01-11T00:37:34.543Z,7.37
2023-01-11T00:40:02.439Z,6.25
2023-01-11T00:42:48.351Z,6.97
2023-01-11T00:45:34.824Z,6.73
2023-01-11T00:48:05.496Z,7.75
2023-01-11T00:50:38.064Z,7.35
2023-01-11T00:53:06.638Z,6.65
2023-01-11T00:55:34.628Z,7.00
2023-01-11T00:58:02.796Z,7.27
2023-01-11T01:00:30.468Z,7.22
2023-01-11T01:02:58.329Z,8.07
2023-01-11T01:05:25.914Z,7.50
2023-01-11T01:07:53.487Z,10.10
2023-01-11T01:10:21.477Z,8.03
2023-01-11T01:13:07.136Z,8.52
2023-01-11T01:15:35.207Z,10.18
2023-01-11T01:18:02.824Z,7.15
2023-01-11T01:20:30.300Z,7.53
2023-01-11T01:22:58.128Z,8.33
2023-01-11T01:25:25.743Z,8.32
2023-01-11T01:27:53.220Z,11.12
2023-01-11T01:30:21.015Z,7.93
2023-01-11T01:32:48.508Z,7.80
2023-01-11T01:35:16.038Z,7.43
2023-01-11T01:37:44.850Z,9.27
2023-01-11T01:40:12.814Z,7.32
2023-01-11T01:42:40.286Z,9.88
2023-01-11T01:45:20.180Z,7.82
2023-01-11T01:47:52.663Z,8.23
2023-01-11T01:50:26.655Z,9.30
2023-01-11T01:52:57.714Z,7.45
2023-01-11T01:55:29.829Z,9.02
2023-01-11T01:57:58.727Z,8.75
2023-01-11T02:00:26.565Z,8.13
2023-01-11T02:02:55.965Z,7.97
2023-01-11T02:05:23.912Z,7.57
2023-01-11T02:07:52.117Z,9.32
2023-01-11T02:10:21.330Z,9.57
2023-01-11T02:13:00.945Z,8.00
2023-01-11T02:15:29.268Z,7.82
2023-01-11T02:17:57.054Z,8.27
2023-01-11T02:20:35.525Z,8.23
2023-01-11T02:23:27.517Z,10.48
2023-01-11T02:26:13.254Z,8.53
2023-01-11T02:29:06.911Z,7.80
2023-01-11T02:31:46.173Z,9.63
2023-01-11T02:34:19.710Z,8.15
2023-01-11T02:37:11.294Z,9.88
2023-01-11T02:40:04.240Z,9.50
2023-01-11T02:43:08.906Z,9.52
2023-01-11T02:45:59.929Z,8.30
2023-01-11T02:48:35.212Z,9.10
2023-01-11T02:51:11.209Z,7.37
2023-01-11T02:53:45.850Z,8.13
2023-01-11T02:56:20.187Z,9.15
2023-01-11T02:58:51.155Z,7.87
2023-01-11T03:01:22.650Z,8.13
2023-01-11T03:03:50.515Z,7.93
2023-01-11T03:06:23.112Z,8.13
2023-01-11T03:09:08.108Z,8.95
2023-01-11T03:12:14.583Z,9.07
2023-01-11T03:15:14.805Z,8.68
2023-01-11T03:18:28.314Z,8.98
2023-01-11T03:21:25.332Z,8.17
2023-01-11T03:23:58.946Z,9.70
2023-01-11T03:26:37.954Z,9.63
2023-01-11T03:29:20.902Z,7.57
2023-01-11T03:32:07.242Z,8.60
2023-01-11T03:34:40.469Z,10.90
2023-01-11T03:37:12.807Z,9.93
2023-01-11T03:39:42.978Z,9.48
2023-01-11T03:42:13.529Z,9.27
2023-01-11T03:44:44.056Z,9.80
2023-01-11T03:47:13.853Z,8.23
2023-01-11T03:49:57.408Z,9.18
2023-01-11T03:52:30.847Z,9.75
2023-01-11T03:54:59.510Z,8.73
2023-01-11T03:57:36.427Z,8.75
2023-01-11T04:00:05.622Z,10.20
2023-01-11T04:02:40.959Z,9.85
2023-01-11T04:05:10.209Z,10.38
2023-01-11T04:07:38.125Z,9.50
2023-01-11T04:10:06.211Z,9.98
2023-01-11T04:12:33.888Z,9.77
2023-01-11T04:15:03.221Z,9.98
2023-01-11T04:17:31.559Z,9.35
2023-01-11T04:19:59.198Z,8.48
2023-01-11T04:22:26.993Z,10.90
2023-01-11T04:24:54.492Z,10.10
2023-01-11T04:27:21.953Z,9.38
2023-01-11T04:29:49.850Z,9.25
2023-01-11T04:32:17.685Z,8.18
2023-01-11T04:34:45.528Z,9.07
2023-01-11T04:37:13.309Z,8.20
2023-01-11T04:39:40.837Z,8.13
2023-01-11T04:42:18.488Z,8.68
2023-01-11T04:44:48.756Z,10.27
2023-01-11T04:47:16.887Z,7.00
2023-01-11T04:49:46.298Z,7.73
2023-01-11T04:52:15.788Z,8.73
2023-01-11T04:54:44.180Z,9.13
2023-01-11T04:57:13.588Z,9.32
2023-01-11T04:59:41.733Z,11.15
2023-01-11T05:02:09.373Z,8.87
2023-01-11T05:04:36.944Z,9.93
2023-01-11T05:07:04.802Z,8.65
2023-01-11T05:09:32.322Z,9.02
2023-01-11T05:11:59.853Z,9.90
2023-01-11T05:14:27.756Z,9.77
2023-01-11T05:16:55.270Z,9.50
2023-01-11T05:19:22.806Z,8.88
2023-01-11T05:21:50.724Z,9.48
2023-01-11T05:24:18.524Z,10.10
2023-01-11T05:26:46.384Z,9.50
2023-01-11T05:29:20.484Z,10.27
2023-01-11T05:31:48.522Z,9.75
2023-01-11T05:34:17.491Z,9.57
2023-01-11T05:36:45.332Z,10.73
2023-01-11T05:39:13.838Z,11.63
2023-01-11T05:41:42.112Z,10.30
2023-01-11T05:44:31.472Z,9.00
2023-01-11T05:46:59.630Z,9.82
2023-01-11T05:49:27.282Z,11.98
2023-01-11T05:51:54.905Z,9.83
2023-01-11T05:54:22.695Z,8.68
2023-01-11T05:56:50.227Z,10.18
2023-01-11T05:59:17.841Z,10.45
2023-01-11T06:01:46.142Z,10.07
2023-01-11T06:04:14.571Z,12.00
2023-01-11T06:06:42.189Z,9.48
2023-01-11T06:09:09.817Z,10.27
2023-01-11T06:11:37.699Z,10.90
2023-01-11T06:14:05.322Z,11.65
2023-01-11T06:16:32.909Z,9.90
2023-01-11T06:19:01.053Z,11.12
2023-01-11T06:21:28.710Z,10.77
2023-01-11T06:23:56.294Z,9.68
2023-01-11T06:26:24.608Z,10.35
2023-01-11T06:28:52.709Z,12.10
2023-01-11T06:31:20.468Z,11.65
2023-01-11T06:33:48.513Z,10.25
2023-01-11T06:36:16.606Z,10.50
2023-01-11T06:38:44.632Z,10.25
2023-01-11T06:41:13.423Z,10.50
2023-01-11T06:43:42.145Z,10.88
2023-01-11T06:46:13.289Z,12.27
2023-01-11T06:48:41.207Z,12.80
2023-01-11T06:51:12.031Z,12.48
2023-01-11T06:53:41.307Z,12.00
2023-01-11T06:56:13.533Z,12.40
2023-01-11T06:58:41.298Z,11.80
2023-01-11T07:01:09.950Z,10.15
2023-01-11T07:03:39.320Z,13.13
2023-01-11T07:06:07.252Z,12.90
2023-01-11T07:08:35.100Z,11.25
2023-01-11T07:11:03.050Z,12.35
2023-01-11T07:13:30.718Z,11.05
2023-01-11T07:15:58.624Z,12.88
2023-01-11T07:18:27.181Z,13.43
2023-01-11T07:20:55.617Z,11.75
2023-01-11T07:23:23.456Z,11.07
2023-01-11T07:25:51.098Z,12.05
2023-01-11T07:28:18.742Z,11.60
2023-01-11T07:30:58.351Z,10.63
2023-01-11T07:33:26.940Z,17.20
2023-01-11T07:35:54.978Z,15.50
2023-01-11T07:38:22.848Z,16.65
2023-01-11T07:40:50.630Z,13.50
2023-01-11T07:43:20.067Z,11.80
2023-01-11T07:45:49.866Z,12.05
2023-01-11T07:48:25.324Z,11.48
2023-01-11T07:50:53.571Z,11.32
2023-01-11T07:53:21.885Z,12.13
2023-01-11T07:55:49.511Z,11.47
2023-01-11T07:58:17.130Z,12.32
2023-01-11T08:00:46.157Z,11.55
2023-01-11T08:03:14.413Z,11.45
2023-01-11T08:05:42.477Z,14.48
2023-01-11T08:08:10.464Z,19.57
2023-01-11T08:10:41.129Z,13.00
2023-01-11T08:13:31.473Z,11.23
2023-01-11T08:16:00.102Z,10.80
2023-01-11T08:18:27.804Z,11.82
2023-01-11T08:20:55.512Z,13.13
2023-01-11T08:23:23.582Z,10.95
2023-01-11T08:25:56.589Z,13.40
2023-01-11T08:28:24.748Z,11.27
2023-01-11T08:30:52.507Z,12.37
2023-01-11T08:33:20.041Z,11.80
2023-01-11T08:35:48.044Z,10.23
2023-01-11T08:38:15.607Z,10.45
2023-01-11T08:40:43.222Z,10.80
2023-01-11T08:43:11.130Z,10.52
2023-01-11T08:45:38.748Z,9.87
2023-01-11T08:48:06.907Z,9.02
2023-01-11T08:50:34.771Z,10.45
2023-01-11T08:53:02.444Z,9.05
2023-01-11T08:55:30.919Z,11.93
2023-01-11T08:57:58.737Z,10.30
2023-01-11T09:00:26.422Z,9.50
2023-01-11T09:02:54.141Z,9.05
2023-01-11T09:05:22.437Z,9.23
2023-01-11T09:07:50.046Z,10.13
2023-01-11T09:10:17.819Z,10.47
2023-01-11T09:12:45.762Z,8.45
2023-01-11T09:15:13.624Z,11.27
2023-01-11T09:17:41.110Z,11.68
2023-01-11T09:20:12.047Z,11.55
2023-01-11T09:22:39.849Z,10.30
2023-01-11T09:25:08.467Z,7.82
2023-01-11T09:27:36.355Z,10.07
2023-01-11T09:30:05.616Z,10.10
2023-01-11T09:32:35.812Z,10.32
2023-01-11T09:35:04.811Z,10.30
2023-01-11T09:37:32.738Z,9.43
2023-01-11T09:40:01.623Z,11.12
2023-01-11T09:42:39.782Z,11.02
2023-01-11T09:45:18.474Z,9.80
2023-01-11T09:48:12.629Z,9.37
2023-01-11T09:50:43.545Z,9.38
2023-01-11T09:53:27.246Z,8.77
2023-01-11T09:55:58.165Z,9.27
2023-01-11T09:58:51.167Z,8.43
2023-01-11T10:01:30.003Z,8.60
2023-01-11T10:04:21.958Z,12.37
2023-01-11T10:07:34.816Z,10.15
2023-01-11T10:18:32.892Z,8.00
2023-01-11T10:19:45.362Z,10.27
2023-01-11T10:22:24.866Z,9.85
2023-01-11T10:25:21.956Z,9.93
2023-01-11T10:27:56.864Z,11.12
2023-01-11T10:31:08.390Z,9.80
2023-01-11T10:33:58.268Z,9.25
2023-01-11T10:36:38.250Z,9.73
2023-01-11T10:39:23.822Z,9.63
2023-01-11T10:42:01.520Z,11.32
2023-01-11T10:44:48.723Z,9.33
2023-01-11T10:47:20.332Z,10.63
2023-01-11T10:49:56.058Z,9.15
2023-01-11T10:52:41.671Z,9.07
2023-01-11T10:55:16.009Z,11.73
2023-01-11T10:58:06.992Z,10.50
2023-01-11T11:00:48.743Z,11.52
2023-01-11T11:03:25.841Z,12.20
2023-01-11T11:05:59.743Z,11.75
2023-01-11T11:08:53.791Z,11.20
2023-01-11T11:11:38.520Z,11.10
2023-01-11T11:14:19.862Z,9.90
2023-01-11T11:16:53.740Z,10.60
2023-01-11T11:19:25.797Z,10.82
2023-01-11T11:21:53.928Z,11.32
2023-01-11T11:24:33.225Z,14.53
2023-01-11T11:27:22.594Z,12.55
2023-01-11T11:29:55.821Z,10.32
2023-01-11T11:32:27.930Z,11.60
2023-01-11T11:34:55.790Z,9.00
2023-01-11T11:37:32.408Z,10.90
2023-01-11T11:40:00.444Z,8.57
2023-01-11T11:42:28.529Z,8.10
2023-01-11T11:45:17.953Z,10.40
2023-01-11T11:48:03.557Z,11.12
2023-01-11T11:50:44.346Z,9.73
2023-01-11T11:53:44.224Z,10.27
2023-01-11T11:56:16.068Z,13.62
2023-01-11T11:58:44.719Z,15.75
2023-01-11T12:01:33.060Z,10.98
2023-01-11T12:07:20.584Z,10.88
2023-01-11T12:09:55.108Z,12.75
2023-01-11T12:12:25.924Z,11.32
2023-01-11T12:15:23.886Z,21.73
2023-01-11T12:17:52.350Z,13.43
2023-01-11T12:20:24.016Z,10.70
2023-01-11T12:23:21.837Z,11.07
2023-01-11T12:26:20.165Z,9.45
2023-01-11T12:29:24.859Z,11.65
2023-01-11T12:32:28.427Z,10.67
2023-01-11T12:34:59.895Z,10.95
2023-01-11T12:37:53.423Z,17.73
2023-01-11T12:40:32.163Z,13.55
2023-01-11T12:43:10.866Z,11.07
2023-01-11T12:45:55.244Z,11.80
2023-01-11T12:48:50.373Z,19.52
2023-01-11T12:51:41.300Z,15.20
2023-01-11T12:54:34.463Z,13.43
2023-01-11T12:58:03.457Z,11.97
2023-01-11T13:01:37.438Z,13.62
2023-01-11T13:08:38.787Z,9.30
2023-01-11T13:19:30.528Z,22.25
2023-01-11T13:22:24.515Z,11.33
2023-01-11T13:25:46.659Z,12.68
2023-01-11T13:29:13.669Z,12.55
2023-01-11T13:31:42.477Z,10.68
2023-01-11T13:34:34.036Z,14.15
2023-01-11T13:37:20.472Z,11.27
2023-01-11T13:40:03.690Z,12.00
2023-01-11T13:42:38.176Z,10.95
2023-01-11T13:45:19.013Z,11.57
2023-01-11T13:47:49.844Z,11.93
2023-01-11T13:50:31.346Z,11.73
2023-01-11T13:53:10.165Z,12.52
2023-01-11T13:55:56.987Z,11.20
2023-01-11T13:58:32.484Z,11.30
2023-01-11T14:01:00.450Z,15.13
2023-01-11T14:03:32.364Z,11.97
2023-01-11T14:06:31.350Z,11.45
2023-01-11T14:09:31.791Z,14.45
2023-01-11T14:12:09.969Z,11.00
2023-01-11T14:14:56.209Z,12.18
2023-01-11T14:17:45.072Z,12.20
2023-01-11T14:20:36.855Z,12.15
2023-01-11T14:23:12.083Z,16.17
2023-01-11T14:25:58.736Z,15.98
2023-01-11T14:28:54.407Z,25.08
2023-01-11T14:31:53.627Z,13.03
2023-01-11T14:34:36.377Z,11.65
2023-01-11T14:37:23.762Z,10.98
2023-01-11T14:39:58.383Z,12.18
2023-01-11T14:42:52.768Z,15.75
2023-01-11T14:45:27.521Z,17.03
2023-01-11T14:48:36.108Z,18.27
2023-01-11T14:51:18.865Z,21.08
2023-01-11T14:53:52.682Z,21.50
2023-01-11T14:56:42.186Z,16.62
2023-01-11T14:59:24.848Z,26.07
2023-01-11T15:02:05.000Z,36.90
2023-01-11T15:04:38.176Z,22.58
2023-01-11T15:07:31.663Z,17.75
2023-01-11T15:10:04.608Z,18.65
2023-01-11T15:12:34.322Z,12.20
2023-01-11T15:15:11.520Z,13.60
2023-01-11T15:17:58.321Z,13.10
2023-01-11T15:20:26.795Z,24.05
2023-01-11T15:22:56.668Z,86.25
2023-01-11T15:25:25.821Z,114.00
2023-01-11T15:27:54.597Z,42.65
2023-01-11T15:30:31.134Z,43.05
2023-01-11T15:33:17.163Z,45.35
2023-01-11T15:36:03.763Z,34.30
2023-01-11T15:38:45.354Z,25.80
2023-01-11T15:41:35.647Z,24.80
2023-01-11T15:44:25.279Z,21.15
2023-01-11T15:47:07.275Z,20.45
2023-01-11T15:49:58.461Z,21.85
2023-01-11T15:52:53.981Z,25.63
2023-01-11T15:55:40.092Z,23.33
2023-01-11T15:58:44.900Z,22.83
2023-01-11T16:01:22.489Z,26.80
2023-01-11T16:04:23.790Z,38.05
2023-01-11T16:06:53.102Z,297.33
2023-01-11T16:09:42.731Z,277.60
2023-01-11T16:12:47.849Z,157.23
2023-01-11T16:15:31.231Z,111.80
2023-01-11T16:18:11.053Z,107.47
2023-01-11T16:20:40.343Z,101.13
2023-01-11T16:23:08.179Z,90.12
2023-01-11T16:25:38.532Z,91.82
2023-01-11T16:28:07.717Z,87.15
2023-01-11T16:30:35.328Z,86.80
2023-01-11T16:33:14.687Z,74.77
2023-01-11T16:35:42.964Z,65.35
2023-01-11T16:38:17.755Z,70.68
2023-01-11T16:40:49.050Z,51.53
2023-01-11T16:43:29.185Z,54.78
2023-01-11T16:45:57.178Z,60.30
2023-01-11T16:48:29.626Z,73.70
2023-01-11T16:51:03.877Z,68.60
2023-01-11T16:53:40.187Z,63.60
2023-01-11T16:56:15.446Z,42.22
2023-01-11T16:58:43.524Z,38.17
2023-01-11T17:01:13.816Z,39.13
2023-01-11T17:03:52.055Z,41.58
2023-01-11T17:06:22.819Z,39.03
2023-01-11T17:08:52.268Z,36.63
2023-01-11T17:11:27.671Z,38.30
2023-01-11T17:14:37.279Z,35.00
2023-01-11T17:17:07.390Z,35.78
2023-01-11T17:19:46.117Z,35.35
2023-01-11T17:22:22.026Z,36.78
2023-01-11T17:25:06.192Z,33.77
2023-01-11T17:27:40.627Z,43.67
2023-01-11T17:30:17.963Z,36.83
2023-01-11T17:32:48.254Z,44.08
2023-01-11T17:35:18.438Z,40.55
2023-01-11T17:37:49.018Z,39.83
2023-01-11T17:40:31.873Z,43.00
2023-01-11T17:43:30.326Z,61.72
2023-01-11T17:45:58.854Z,58.08
2023-01-11T17:48:27.542Z,50.25
2023-01-11T17:50:59.823Z,51.67
2023-01-11T17:53:32.492Z,37.63
2023-01-11T17:56:01.150Z,38.17
2023-01-11T17:58:30.539Z,28.95
2023-01-11T18:01:09.872Z,27.62
2023-01-11T18:03:50.677Z,32.37
2023-01-11T18:06:41.871Z,28.17
2023-01-11T18:09:22.617Z,26.70
2023-01-11T18:11:51.347Z,28.10
2023-01-11T18:14:27.993Z,27.30
2023-01-11T18:17:03.798Z,30.40
2023-01-11T18:19:31.903Z,27.27
2023-01-11T18:21:59.491Z,28.55
2023-01-11T18:24:33.514Z,28.15
2023-01-11T18:27:16.352Z,31.60
2023-01-11T18:29:48.097Z,27.80
2023-01-11T18:32:16.267Z,33.08
2023-01-11T18:34:46.570Z,33.33
2023-01-11T18:37:14.202Z,34.95
2023-01-11T18:39:42.864Z,34.63
2023-01-11T18:42:15.818Z,35.83
2023-01-11T18:44:46.849Z,40.00
2023-01-11T18:47:26.651Z,46.53
2023-01-11T18:49:54.657Z,35.28
2023-01-11T18:52:27.806Z,30.85
2023-01-11T18:54:56.563Z,28.93
2023-01-11T18:57:24.655Z,29.75
2023-01-11T18:59:57.124Z,29.05
2023-01-11T19:02:30.615Z,24.80
2023-01-11T19:04:58.612Z,27.40
2023-01-11T19:07:26.863Z,28.37
2023-01-11T19:09:55.089Z,31.65
2023-01-11T19:12:23.780Z,33.47
2023-01-11T19:14:51.820Z,46.03
2023-01-11T19:17:19.430Z,67.97
2023-01-11T19:19:47.914Z,76.97
2023-01-11T19:22:15.855Z,71.90
2023-01-11T19:24:43.285Z,58.20
2023-01-11T19:27:13.638Z,85.18
2023-01-11T19:29:42.718Z,70.07
2023-01-11T19:32:10.324Z,40.17
2023-01-11T19:34:39.789Z,32.92
2023-01-11T19:37:07.908Z,35.67
2023-01-11T19:39:36.888Z,38.88
2023-01-11T19:42:05.047Z,37.05
2023-01-11T19:44:34.852Z,31.37
2023-01-11T19:47:11.529Z,25.88
2023-01-11T19:49:41.910Z,28.67
2023-01-11T19:52:18.851Z,27.33
2023-01-11T19:54:47.087Z,30.45
2023-01-11T19:57:18.752Z,29.00
2023-01-11T19:59:47.186Z,28.35
2023-01-11T20:02:17.070Z,28.52
2023-01-11T20:04:45.000Z,25.65
2023-01-11T20:07:13.545Z,22.92
2023-01-11T20:09:41.395Z,24.23
2023-01-11T20:12:11.646Z,23.67
2023-01-11T20:14:40.542Z,27.45
2023-01-11T20:17:08.731Z,32.67
2023-01-11T20:19:36.976Z,32.22
2023-01-11T20:22:05.332Z,32.50
2023-01-11T20:24:33.095Z,37.00
2023-01-11T20:27:02.763Z,29.90
2023-01-11T20:29:30.844Z,26.73
2023-01-11T20:32:18.686Z,26.02
2023-01-11T20:34:46.617Z,20.50
2023-01-11T20:37:15.186Z,21.15
2023-01-11T20:39:42.841Z,20.90
2023-01-11T20:42:12.614Z,25.02
2023-01-11T20:44:40.421Z,28.02
2023-01-11T20:47:08.302Z,28.27
2023-01-11T20:49:36.173Z,29.12
2023-01-11T20:52:04.418Z,32.55
2023-01-11T20:54:32.202Z,34.17
2023-01-11T20:57:05.349Z,32.88
2023-01-11T20:59:32.929Z,30.47
2023-01-11T21:02:00.995Z,37.42
2023-01-11T21:04:28.785Z,37.55
2023-01-11T21:06:56.397Z,38.55
2023-01-11T21:09:24.207Z,38.97
2023-01-11T21:11:54.392Z,49.97
2023-01-11T21:14:22.499Z,52.70
2023-01-11T21:16:50.311Z,49.90
2023-01-11T21:19:18.506Z,51.90
2023-01-11T21:21:47.457Z,46.47
2023-01-11T21:24:16.983Z,43.30
2023-01-11T21:26:45.868Z,44.85
2023-01-11T21:29:13.867Z,43.63
2023-01-11T21:31:42.081Z,45.42
2023-01-11T21:34:13.129Z,41.30
2023-01-11T21:36:41.352Z,42.47
2023-01-11T21:39:13.078Z,40.63
2023-01-11T21:41:56.126Z,42.65
2023-01-11T21:44:28.075Z,57.92
2023-01-11T21:46:55.926Z,79.60
2023-01-11T21:49:24.420Z,64.67
2023-01-11T21:51:52.156Z,59.95
2023-01-11T21:54:20.243Z,59.83
2023-01-11T21:56:48.440Z,45.78
2023-01-11T21:59:16.258Z,47.67
2023-01-11T22:01:45.249Z,44.37
2023-01-11T22:04:16.150Z,45.47
2023-01-11T22:06:51.210Z,49.00
2023-01-11T22:09:20.348Z,43.85
2023-01-11T22:11:48.173Z,42.42
2023-01-11T22:14:15.771Z,47.23
2023-01-11T22:16:43.680Z,60.50
2023-01-11T22:19:11.382Z,60.08
2023-01-11T22:21:39.247Z,57.55
2023-01-11T22:24:10.361Z,61.78
2023-01-11T22:26:39.059Z,54.90
2023-01-11T22:29:17.670Z,64.30
2023-01-11T22:31:48.911Z,61.85
2023-01-11T22:34:17.547Z,55.33
2023-01-11T22:36:45.628Z,52.90
2023-01-11T22:39:14.383Z,49.33
2023-01-11T22:41:45.507Z,51.95
2023-01-11T22:44:13.861Z,52.08
2023-01-11T22:46:42.161Z,55.42
2023-01-11T22:49:10.673Z,54.65
2023-01-11T22:51:38.432Z,54.67
2023-01-11T22:54:06.137Z,45.78
2023-01-11T22:56:34.016Z,49.45
2023-01-11T22:59:02.587Z,47.70
2023-01-11T23:01:32.980Z,49.95
2023-01-11T23:04:01.302Z,52.07
2023-01-11T23:06:34.321Z,55.58
2023-01-11T23:09:02.612Z,48.33
2023-01-11T23:11:51.055Z,43.47
2023-01-11T23:14:19.760Z,47.15
2023-01-11T23:16:49.550Z,44.63
2023-01-11T23:19:19.813Z,39.75
2023-01-11T23:21:47.941Z,41.67
2023-01-11T23:24:16.662Z,42.25
2023-01-11T23:26:45.422Z,44.08
2023-01-11T23:29:13.456Z,46.43
2023-01-11T23:31:42.908Z,42.42
2023-01-11T23:34:11.919Z,40.47
2023-01-11T23:36:41.660Z,35.85
2023-01-11T23:39:16.961Z,33.22
2023-01-11T23:42:03.319Z,37.17
2023-01-11T23:44:30.940Z,34.45
2023-01-11T23:47:17.552Z,32.83
2023-01-11T23:49:45.596Z,35.45
2023-01-11T23:52:14.037Z,35.33
2023-01-11T23:54:41.764Z,33.60
2023-01-11T23:57:12.288Z,32.13
2023-01-11T23:59:41.265Z,33.03
